sensor_id;sensor_type;location;lat;lon;timestamp;pressure;altitude;pressure_sealevel;temperature;humidity
83021;BME280;72837;47.418;19.394;2023-09-30T00:00:00;63443.25;;;-139.69;100.00
83021;BME280;72837;47.418;19.394;2023-09-30T00:02:36;63443.25;;;-139.69;100.00
83021;BME280;72837;47.418;19.394;2023-09-30T00:05:03;63443.25;;;-139.69;100.00
83021;BME280;72837;47.418;19.394;2023-09-30T00:07:31;63443.25;;;-139.69;100.00
83021;BME280;72837;47.418;19.394;2023-09-30T00:09:59;63443.25;;;-139.69;100.00
83021;BME280;72837;47.418;19.394;2023-09-30T00:12:26;63443.25;;;-139.69;100.00
83021;BME280;72837;47.418;19.394;2023-09-30T00:14:54;63443.25;;;-139.69;100.00
83021;BME280;72837;47.418;19.394;2023-09-30T00:17:21;63443.25;;;-139.69;100.00
83021;BME280;72837;47.418;19.394;2023-09-30T00:19:49;63443.25;;;-139.69;100.00
83021;BME280;72837;47.418;19.394;2023-09-30T00:22:16;63443.25;;;-139.69;100.00
83021;BME280;72837;47.418;19.394;2023-09-30T00:24:43;63443.25;;;-139.69;100.00
83021;BME280;72837;47.418;19.394;2023-09-30T00:27:11;63443.25;;;-139.69;100.00
83021;BME280;72837;47.418;19.394;2023-09-30T00:29:38;63443.25;;;-139.69;100.00
83021;BME280;72837;47.418;19.394;2023-09-30T00:32:06;63443.25;;;-139.69;100.00
83021;BME280;72837;47.418;19.394;2023-09-30T00:34:34;63443.25;;;-139.69;100.00
83021;BME280;72837;47.418;19.394;2023-09-30T00:37:02;63443.25;;;-139.69;100.00
83021;BME280;72837;47.418;19.394;2023-09-30T00:39:29;63443.25;;;-139.69;100.00
83021;BME280;72837;47.418;19.394;2023-09-30T00:41:58;63443.25;;;-139.69;100.00
83021;BME280;72837;47.418;19.394;2023-09-30T00:44:28;63443.25;;;-139.69;100.00
83021;BME280;72837;47.418;19.394;2023-09-30T00:46:55;63443.25;;;-139.69;100.00
83021;BME280;72837;47.418;19.394;2023-09-30T00:49:24;63443.25;;;-139.69;100.00
83021;BME280;72837;47.418;19.394;2023-09-30T00:51:52;63443.25;;;-139.69;100.00
83021;BME280;72837;47.418;19.394;2023-09-30T00:54:23;63443.25;;;-139.69;100.00
83021;BME280;72837;47.418;19.394;2023-09-30T00:56:52;63443.25;;;-139.69;100.00
83021;BME280;72837;47.418;19.394;2023-09-30T00:59:23;63443.25;;;-139.69;100.00
83021;BME280;72837;47.418;19.394;2023-09-30T01:01:54;63443.25;;;-139.69;100.00
83021;BME280;72837;47.418;19.394;2023-09-30T01:04:25;63443.25;;;-139.69;100.00
83021;BME280;72837;47.418;19.394;2023-09-30T01:06:54;63443.25;;;-139.69;100.00
83021;BME280;72837;47.418;19.394;2023-09-30T01:09:21;63443.25;;;-139.69;100.00
83021;BME280;72837;47.418;19.394;2023-09-30T01:11:48;63443.25;;;-139.69;100.00
83021;BME280;72837;47.418;19.394;2023-09-30T01:14:30;63443.25;;;-139.69;100.00
83021;BME280;72837;47.418;19.394;2023-09-30T01:16:59;63443.25;;;-139.69;100.00
83021;BME280;72837;47.418;19.394;2023-09-30T01:19:26;63443.25;;;-139.69;100.00
83021;BME280;72837;47.418;19.394;2023-09-30T01:21:55;63443.25;;;-139.69;100.00
83021;BME280;72837;47.418;19.394;2023-09-30T01:24:28;63443.25;;;-139.69;100.00
83021;BME280;72837;47.418;19.394;2023-09-30T01:26:56;63443.25;;;-139.69;100.00
83021;BME280;72837;47.418;19.394;2023-09-30T01:29:24;63443.25;;;-139.69;100.00
83021;BME280;72837;47.418;19.394;2023-09-30T01:31:55;63443.25;;;-139.69;100.00
83021;BME280;72837;47.418;19.394;2023-09-30T01:34:22;63443.25;;;-139.69;100.00
83021;BME280;72837;47.418;19.394;2023-09-30T01:36:49;63443.25;;;-139.69;100.00
83021;BME280;72837;47.418;19.394;2023-09-30T01:39:17;63443.25;;;-139.69;100.00
83021;BME280;72837;47.418;19.394;2023-09-30T01:41:45;63443.25;;;-139.69;100.00
83021;BME280;72837;47.418;19.394;2023-09-30T01:44:12;63443.25;;;-139.69;100.00
83021;BME280;72837;47.418;19.394;2023-09-30T01:46:39;63443.25;;;-139.69;100.00
83021;BME280;72837;47.418;19.394;2023-09-30T01:49:06;63443.25;;;-139.69;100.00
83021;BME280;72837;47.418;19.394;2023-09-30T01:51:33;63443.25;;;-139.69;100.00
83021;BME280;72837;47.418;19.394;2023-09-30T01:54:01;63443.25;;;-139.69;100.00
83021;BME280;72837;47.418;19.394;2023-09-30T01:56:28;63443.25;;;-139.69;100.00
83021;BME280;72837;47.418;19.394;2023-09-30T01:58:57;63443.25;;;-139.69;100.00
83021;BME280;72837;47.418;19.394;2023-09-30T02:01:26;63443.25;;;-139.69;100.00
83021;BME280;72837;47.418;19.394;2023-09-30T02:03:53;63443.25;;;-139.69;100.00
83021;BME280;72837;47.418;19.394;2023-09-30T02:06:20;63443.25;;;-139.69;100.00
83021;BME280;72837;47.418;19.394;2023-09-30T02:08:48;63443.25;;;-139.69;100.00
83021;BME280;72837;47.418;19.394;2023-09-30T02:11:15;63443.25;;;-139.69;100.00
83021;BME280;72837;47.418;19.394;2023-09-30T02:13:43;63443.25;;;-139.69;100.00
83021;BME280;72837;47.418;19.394;2023-09-30T02:16:12;63443.25;;;-139.69;100.00
83021;BME280;72837;47.418;19.394;2023-09-30T02:18:42;63443.25;;;-139.69;100.00
83021;BME280;72837;47.418;19.394;2023-09-30T02:21:12;63443.25;;;-139.69;100.00
83021;BME280;72837;47.418;19.394;2023-09-30T02:23:39;63443.25;;;-139.69;100.00
83021;BME280;72837;47.418;19.394;2023-09-30T02:26:06;63443.25;;;-139.69;100.00
83021;BME280;72837;47.418;19.394;2023-09-30T02:28:33;63443.25;;;-139.69;100.00
83021;BME280;72837;47.418;19.394;2023-09-30T02:31:03;63443.25;;;-139.69;100.00
83021;BME280;72837;47.418;19.394;2023-09-30T02:33:31;63443.25;;;-139.69;100.00
83021;BME280;72837;47.418;19.394;2023-09-30T02:35:59;63443.25;;;-139.69;100.00
83021;BME280;72837;47.418;19.394;2023-09-30T02:38:26;63443.25;;;-139.69;100.00
83021;BME280;72837;47.418;19.394;2023-09-30T02:40:54;63443.25;;;-139.69;100.00
83021;BME280;72837;47.418;19.394;2023-09-30T02:43:22;63443.25;;;-139.69;100.00
83021;BME280;72837;47.418;19.394;2023-09-30T02:45:49;63443.25;;;-139.69;100.00
83021;BME280;72837;47.418;19.394;2023-09-30T02:48:17;63443.25;;;-139.69;100.00
83021;BME280;72837;47.418;19.394;2023-09-30T02:50:45;63443.25;;;-139.69;100.00
83021;BME280;72837;47.418;19.394;2023-09-30T02:53:12;63443.25;;;-139.69;100.00
83021;BME280;72837;47.418;19.394;2023-09-30T02:55:41;63443.25;;;-139.69;100.00
83021;BME280;72837;47.418;19.394;2023-09-30T02:58:10;63443.25;;;-139.69;100.00
83021;BME280;72837;47.418;19.394;2023-09-30T03:00:37;63443.25;;;-139.69;100.00
83021;BME280;72837;47.418;19.394;2023-09-30T03:03:05;63443.25;;;-139.69;100.00
83021;BME280;72837;47.418;19.394;2023-09-30T03:05:32;63443.25;;;-139.69;100.00
83021;BME280;72837;47.418;19.394;2023-09-30T03:08:00;63443.25;;;-139.69;100.00
83021;BME280;72837;47.418;19.394;2023-09-30T03:10:28;63443.25;;;-139.69;100.00
83021;BME280;72837;47.418;19.394;2023-09-30T03:12:56;63443.25;;;-139.69;100.00
83021;BME280;72837;47.418;19.394;2023-09-30T03:15:29;63443.25;;;-139.69;100.00
83021;BME280;72837;47.418;19.394;2023-09-30T03:18:00;63443.25;;;-139.69;100.00
83021;BME280;72837;47.418;19.394;2023-09-30T03:20:27;63443.25;;;-139.69;100.00
83021;BME280;72837;47.418;19.394;2023-09-30T03:22:56;63443.25;;;-139.69;100.00
83021;BME280;72837;47.418;19.394;2023-09-30T03:25:23;63443.25;;;-139.69;100.00
83021;BME280;72837;47.418;19.394;2023-09-30T03:27:50;63443.25;;;-139.69;100.00
83021;BME280;72837;47.418;19.394;2023-09-30T03:30:18;63443.25;;;-139.69;100.00
83021;BME280;72837;47.418;19.394;2023-09-30T03:32:47;63443.25;;;-139.69;100.00
83021;BME280;72837;47.418;19.394;2023-09-30T03:35:15;63443.25;;;-139.69;100.00
83021;BME280;72837;47.418;19.394;2023-09-30T03:37:47;63443.25;;;-139.69;100.00
83021;BME280;72837;47.418;19.394;2023-09-30T03:40:14;63443.25;;;-139.69;100.00
83021;BME280;72837;47.418;19.394;2023-09-30T03:42:47;63443.25;;;-139.69;100.00
83021;BME280;72837;47.418;19.394;2023-09-30T03:45:17;63443.25;;;-139.69;100.00
83021;BME280;72837;47.418;19.394;2023-09-30T03:47:45;63443.25;;;-139.69;100.00
83021;BME280;72837;47.418;19.394;2023-09-30T03:50:15;63443.25;;;-139.69;100.00
83021;BME280;72837;47.418;19.394;2023-09-30T03:52:43;63443.25;;;-139.69;100.00
83021;BME280;72837;47.418;19.394;2023-09-30T03:55:15;63443.25;;;-139.69;100.00
83021;BME280;72837;47.418;19.394;2023-09-30T03:57:44;63443.25;;;-139.69;100.00
83021;BME280;72837;47.418;19.394;2023-09-30T04:00:16;63443.25;;;-139.69;100.00
83021;BME280;72837;47.418;19.394;2023-09-30T04:02:48;63443.25;;;-139.69;100.00
83021;BME280;72837;47.418;19.394;2023-09-30T04:05:18;63443.25;;;-139.69;100.00
83021;BME280;72837;47.418;19.394;2023-09-30T04:07:47;63443.25;;;-139.69;100.00
83021;BME280;72837;47.418;19.394;2023-09-30T04:10:14;63443.25;;;-139.69;100.00
83021;BME280;72837;47.418;19.394;2023-09-30T04:12:41;63443.25;;;-139.69;100.00
83021;BME280;72837;47.418;19.394;2023-09-30T04:15:09;63443.25;;;-139.69;100.00
83021;BME280;72837;47.418;19.394;2023-09-30T04:17:39;63443.25;;;-139.69;100.00
83021;BME280;72837;47.418;19.394;2023-09-30T04:20:08;63443.25;;;-139.69;100.00
83021;BME280;72837;47.418;19.394;2023-09-30T04:22:38;63443.25;;;-139.69;100.00
83021;BME280;72837;47.418;19.394;2023-09-30T04:25:05;63443.25;;;-139.69;100.00
83021;BME280;72837;47.418;19.394;2023-09-30T04:27:36;63443.25;;;-139.69;100.00
83021;BME280;72837;47.418;19.394;2023-09-30T04:30:04;63443.25;;;-139.69;100.00
83021;BME280;72837;47.418;19.394;2023-09-30T04:32:36;63443.25;;;-139.69;100.00
83021;BME280;72837;47.418;19.394;2023-09-30T04:35:06;63443.25;;;-139.69;100.00
83021;BME280;72837;47.418;19.394;2023-09-30T04:37:35;63443.25;;;-139.69;100.00
83021;BME280;72837;47.418;19.394;2023-09-30T04:40:07;63443.25;;;-139.69;100.00
83021;BME280;72837;47.418;19.394;2023-09-30T04:42:53;63443.25;;;-139.69;100.00
83021;BME280;72837;47.418;19.394;2023-09-30T04:45:27;63443.25;;;-139.69;100.00
83021;BME280;72837;47.418;19.394;2023-09-30T04:47:54;63443.25;;;-139.69;100.00
83021;BME280;72837;47.418;19.394;2023-09-30T04:50:25;63443.25;;;-139.69;100.00
83021;BME280;72837;47.418;19.394;2023-09-30T04:52:52;63443.25;;;-139.69;100.00
83021;BME280;72837;47.418;19.394;2023-09-30T04:55:21;63443.25;;;-139.69;100.00
83021;BME280;72837;47.418;19.394;2023-09-30T04:57:50;63443.25;;;-139.69;100.00
83021;BME280;72837;47.418;19.394;2023-09-30T05:00:19;63443.25;;;-139.69;100.00
83021;BME280;72837;47.418;19.394;2023-09-30T05:02:55;63443.25;;;-139.69;100.00
83021;BME280;72837;47.418;19.394;2023-09-30T05:05:23;63443.25;;;-139.69;100.00
83021;BME280;72837;47.418;19.394;2023-09-30T05:07:50;63443.25;;;-139.69;100.00
83021;BME280;72837;47.418;19.394;2023-09-30T05:10:18;63443.25;;;-139.69;100.00
83021;BME280;72837;47.418;19.394;2023-09-30T05:12:46;63443.25;;;-139.69;100.00
83021;BME280;72837;47.418;19.394;2023-09-30T05:15:15;63443.25;;;-139.69;100.00
83021;BME280;72837;47.418;19.394;2023-09-30T05:17:44;63443.25;;;-139.69;100.00
83021;BME280;72837;47.418;19.394;2023-09-30T05:20:13;63443.25;;;-139.69;100.00
83021;BME280;72837;47.418;19.394;2023-09-30T05:22:41;63443.25;;;-139.69;100.00
83021;BME280;72837;47.418;19.394;2023-09-30T05:25:13;63443.25;;;-139.69;100.00
83021;BME280;72837;47.418;19.394;2023-09-30T05:27:44;63443.25;;;-139.69;100.00
83021;BME280;72837;47.418;19.394;2023-09-30T05:30:11;63443.25;;;-139.69;100.00
83021;BME280;72837;47.418;19.394;2023-09-30T05:32:43;63443.25;;;-139.69;100.00
83021;BME280;72837;47.418;19.394;2023-09-30T05:35:10;63443.25;;;-139.69;100.00
83021;BME280;72837;47.418;19.394;2023-09-30T05:37:41;63443.25;;;-139.69;100.00
83021;BME280;72837;47.418;19.394;2023-09-30T05:40:10;63443.25;;;-139.69;100.00
83021;BME280;72837;47.418;19.394;2023-09-30T05:42:54;63443.25;;;-139.69;100.00
83021;BME280;72837;47.418;19.394;2023-09-30T05:45:31;63443.25;;;-139.69;100.00
83021;BME280;72837;47.418;19.394;2023-09-30T05:48:03;63443.25;;;-139.69;100.00
83021;BME280;72837;47.418;19.394;2023-09-30T05:50:34;63443.25;;;-139.69;100.00
83021;BME280;72837;47.418;19.394;2023-09-30T05:53:04;63443.25;;;-139.69;100.00
83021;BME280;72837;47.418;19.394;2023-09-30T05:55:35;63443.25;;;-139.69;100.00
83021;BME280;72837;47.418;19.394;2023-09-30T05:58:02;63443.25;;;-139.69;100.00
83021;BME280;72837;47.418;19.394;2023-09-30T06:00:30;63443.25;;;-139.69;100.00
83021;BME280;72837;47.418;19.394;2023-09-30T06:02:58;63443.25;;;-139.69;100.00
83021;BME280;72837;47.418;19.394;2023-09-30T06:05:27;63443.25;;;-139.69;100.00
83021;BME280;72837;47.418;19.394;2023-09-30T06:07:59;63443.25;;;-139.69;100.00
83021;BME280;72837;47.418;19.394;2023-09-30T06:10:27;63443.25;;;-139.69;100.00
83021;BME280;72837;47.418;19.394;2023-09-30T06:12:55;63443.25;;;-139.69;100.00
83021;BME280;72837;47.418;19.394;2023-09-30T06:15:24;63443.25;;;-139.69;100.00
83021;BME280;72837;47.418;19.394;2023-09-30T06:17:56;63443.25;;;-139.69;100.00
83021;BME280;72837;47.418;19.394;2023-09-30T06:20:26;63443.25;;;-139.69;100.00
83021;BME280;72837;47.418;19.394;2023-09-30T06:22:55;63443.25;;;-139.69;100.00
83021;BME280;72837;47.418;19.394;2023-09-30T06:25:23;63443.25;;;-139.69;100.00
83021;BME280;72837;47.418;19.394;2023-09-30T06:27:54;63443.25;;;-139.69;100.00
83021;BME280;72837;47.418;19.394;2023-09-30T06:30:23;63443.25;;;-139.69;100.00
83021;BME280;72837;47.418;19.394;2023-09-30T06:33:02;63443.25;;;-139.69;100.00
83021;BME280;72837;47.418;19.394;2023-09-30T06:35:32;63443.25;;;-139.69;100.00
83021;BME280;72837;47.418;19.394;2023-09-30T06:38:07;63443.25;;;-139.69;100.00
83021;BME280;72837;47.418;19.394;2023-09-30T06:40:35;63443.25;;;-139.69;100.00
83021;BME280;72837;47.418;19.394;2023-09-30T06:43:06;63443.25;;;-139.69;100.00
83021;BME280;72837;47.418;19.394;2023-09-30T06:45:36;63443.25;;;-139.69;100.00
83021;BME280;72837;47.418;19.394;2023-09-30T06:48:10;63443.25;;;-139.69;100.00
83021;BME280;72837;47.418;19.394;2023-09-30T06:50:47;63443.25;;;-139.69;100.00
83021;BME280;72837;47.418;19.394;2023-09-30T06:53:16;63443.25;;;-139.69;100.00
83021;BME280;72837;47.418;19.394;2023-09-30T06:55:44;63443.25;;;-139.69;100.00
83021;BME280;72837;47.418;19.394;2023-09-30T06:58:11;63443.25;;;-139.69;100.00
83021;BME280;72837;47.418;19.394;2023-09-30T07:00:40;63443.25;;;-139.69;100.00
83021;BME280;72837;47.418;19.394;2023-09-30T07:03:09;63443.25;;;-139.69;100.00
83021;BME280;72837;47.418;19.394;2023-09-30T07:05:36;63443.25;;;-139.69;100.00
83021;BME280;72837;47.418;19.394;2023-09-30T07:08:04;63443.25;;;-139.69;100.00
83021;BME280;72837;47.418;19.394;2023-09-30T07:10:32;63443.25;;;-139.69;100.00
83021;BME280;72837;47.418;19.394;2023-09-30T07:13:02;63443.25;;;-139.69;100.00
83021;BME280;72837;47.418;19.394;2023-09-30T07:15:30;63443.25;;;-139.69;100.00
83021;BME280;72837;47.418;19.394;2023-09-30T07:17:58;63443.25;;;-139.69;100.00
83021;BME280;72837;47.418;19.394;2023-09-30T07:20:25;63443.25;;;-139.69;100.00
83021;BME280;72837;47.418;19.394;2023-09-30T07:22:53;63443.25;;;-139.69;100.00
83021;BME280;72837;47.418;19.394;2023-09-30T07:25:41;63443.25;;;-139.69;100.00
83021;BME280;72837;47.418;19.394;2023-09-30T07:28:08;63443.25;;;-139.69;100.00
83021;BME280;72837;47.418;19.394;2023-09-30T07:30:39;63443.25;;;-139.69;100.00
83021;BME280;72837;47.418;19.394;2023-09-30T07:33:07;63443.25;;;-139.69;100.00
83021;BME280;72837;47.418;19.394;2023-09-30T07:35:34;63443.25;;;-139.69;100.00
83021;BME280;72837;47.418;19.394;2023-09-30T07:38:03;100235.00;;;20.36;50.51
83021;BME280;72837;47.418;19.394;2023-09-30T07:40:31;100352.69;;;20.46;54.97
83021;BME280;72837;47.418;19.394;2023-09-30T07:43:00;100343.50;;;20.42;54.63
83021;BME280;72837;47.418;19.394;2023-09-30T07:45:27;100334.19;;;20.48;55.40
83021;BME280;72837;47.418;19.394;2023-09-30T07:47:55;100339.84;;;20.57;55.86
83021;BME280;72837;47.418;19.394;2023-09-30T07:50:25;100354.91;;;20.44;57.10
83021;BME280;72837;47.418;19.394;2023-09-30T07:52:53;100353.31;;;20.38;56.65
83021;BME280;72837;47.418;19.394;2023-09-30T07:55:21;100354.31;;;20.52;57.42
83021;BME280;72837;47.418;19.394;2023-09-30T07:57:49;63443.25;;;-139.69;100.00
83021;BME280;72837;47.418;19.394;2023-09-30T08:00:16;100354.78;;;20.59;55.92
83021;BME280;72837;47.418;19.394;2023-09-30T08:02:44;100348.34;;;20.50;57.12
83021;BME280;72837;47.418;19.394;2023-09-30T08:05:12;100351.06;;;20.50;57.08
83021;BME280;72837;47.418;19.394;2023-09-30T08:07:39;100351.34;;;20.49;57.67
83021;BME280;72837;47.418;19.394;2023-09-30T08:10:07;100358.47;;;20.78;55.40
83021;BME280;72837;47.418;19.394;2023-09-30T08:12:39;100356.72;;;20.54;55.71
83021;BME280;72837;47.418;19.394;2023-09-30T08:15:09;100361.91;;;20.55;55.25
83021;BME280;72837;47.418;19.394;2023-09-30T08:17:40;100362.56;;;20.76;55.40
83021;BME280;72837;47.418;19.394;2023-09-30T08:20:08;100365.16;;;21.24;54.58
83021;BME280;72837;47.418;19.394;2023-09-30T08:22:39;100366.00;;;21.20;54.76
83021;BME280;72837;47.418;19.394;2023-09-30T08:25:07;100361.66;;;20.90;55.05
83021;BME280;72837;47.418;19.394;2023-09-30T08:27:36;100354.75;;;21.31;54.12
83021;BME280;72837;47.418;19.394;2023-09-30T08:30:05;100350.41;;;21.30;53.85
83021;BME280;72837;47.418;19.394;2023-09-30T08:32:36;100359.31;;;21.88;52.55
83021;BME280;72837;47.418;19.394;2023-09-30T08:35:04;100353.41;;;21.81;53.16
83021;BME280;72837;47.418;19.394;2023-09-30T08:37:32;100359.66;;;23.10;50.08
83021;BME280;72837;47.418;19.394;2023-09-30T08:40:00;100351.06;;;23.35;49.29
83021;BME280;72837;47.418;19.394;2023-09-30T08:42:28;100352.69;;;24.17;47.07
83021;BME280;72837;47.418;19.394;2023-09-30T08:45:02;100352.81;;;24.48;46.79
83021;BME280;72837;47.418;19.394;2023-09-30T08:47:34;100347.41;;;24.91;44.79
83021;BME280;72837;47.418;19.394;2023-09-30T08:50:03;100347.41;;;24.91;44.79
83021;BME280;72837;47.418;19.394;2023-09-30T08:52:41;100341.09;;;25.82;43.49
83021;BME280;72837;47.418;19.394;2023-09-30T08:55:10;100332.81;;;25.57;43.51
83021;BME280;72837;47.418;19.394;2023-09-30T08:57:42;100334.81;;;25.82;40.90
83021;BME280;72837;47.418;19.394;2023-09-30T09:00:12;100330.44;;;26.37;40.30
83021;BME280;72837;47.418;19.394;2023-09-30T09:02:41;100336.25;;;26.44;39.60
83021;BME280;72837;47.418;19.394;2023-09-30T09:05:08;100336.09;;;26.66;39.37
83021;BME280;72837;47.418;19.394;2023-09-30T09:07:40;100322.19;;;26.96;38.29
83021;BME280;72837;47.418;19.394;2023-09-30T09:10:09;100332.88;;;26.55;38.76
83021;BME280;72837;47.418;19.394;2023-09-30T09:12:37;100336.09;;;26.49;38.15
83021;BME280;72837;47.418;19.394;2023-09-30T09:15:20;100328.19;;;26.30;38.24
83021;BME280;72837;47.418;19.394;2023-09-30T09:17:49;100336.69;;;25.25;40.81
83021;BME280;72837;47.418;19.394;2023-09-30T09:20:22;100331.19;;;25.25;40.49
83021;BME280;72837;47.418;19.394;2023-09-30T09:22:52;100326.75;;;27.47;36.16
83021;BME280;72837;47.418;19.394;2023-09-30T09:25:21;100329.03;;;30.06;33.01
83021;BME280;72837;47.418;19.394;2023-09-30T09:27:53;100322.56;;;31.35;29.78
83021;BME280;72837;47.418;19.394;2023-09-30T09:30:26;100322.13;;;32.64;27.46
83021;BME280;72837;47.418;19.394;2023-09-30T09:33:06;100322.34;;;32.75;27.15
83021;BME280;72837;47.418;19.394;2023-09-30T09:35:34;100322.91;;;32.65;28.15
83021;BME280;72837;47.418;19.394;2023-09-30T09:38:03;100333.72;;;29.69;31.05
83021;BME280;72837;47.418;19.394;2023-09-30T09:40:33;100323.75;;;28.06;34.66
83021;BME280;72837;47.418;19.394;2023-09-30T09:43:03;100320.47;;;27.38;35.98
83021;BME280;72837;47.418;19.394;2023-09-30T09:45:34;100322.16;;;26.11;39.13
83021;BME280;72837;47.418;19.394;2023-09-30T09:48:03;100317.94;;;25.49;38.98
83021;BME280;72837;47.418;19.394;2023-09-30T09:50:32;100312.88;;;25.82;39.11
83021;BME280;72837;47.418;19.394;2023-09-30T09:53:00;100331.59;;;24.88;40.42
83021;BME280;72837;47.418;19.394;2023-09-30T09:55:27;100315.13;;;25.41;39.58
83021;BME280;72837;47.418;19.394;2023-09-30T09:57:55;100311.97;;;24.38;42.34
83021;BME280;72837;47.418;19.394;2023-09-30T10:00:26;100313.75;;;24.20;42.03
83021;BME280;72837;47.418;19.394;2023-09-30T10:02:54;100311.94;;;24.65;41.96
83021;BME280;72837;47.418;19.394;2023-09-30T10:05:21;100306.72;;;25.07;41.98
83021;BME280;72837;47.418;19.394;2023-09-30T10:07:55;100296.31;;;31.76;30.63
83021;BME280;72837;47.418;19.394;2023-09-30T10:10:25;100285.09;;;34.10;26.24
83021;BME280;72837;47.418;19.394;2023-09-30T10:12:52;100310.06;;;27.89;33.93
83021;BME280;72837;47.418;19.394;2023-09-30T10:20:41;100307.88;;;25.14;41.74
83021;BME280;72837;47.418;19.394;2023-09-30T10:25:48;100304.84;;;24.15;43.50
83021;BME280;72837;47.418;19.394;2023-09-30T10:28:35;100312.00;;;23.89;43.19
83021;BME280;72837;47.418;19.394;2023-09-30T10:31:09;100311.81;;;23.85;44.87
83021;BME280;72837;47.418;19.394;2023-09-30T10:36:31;100306.13;;;23.68;46.08
83021;BME280;72837;47.418;19.394;2023-09-30T10:39:00;100310.56;;;23.78;46.63
83021;BME280;72837;47.418;19.394;2023-09-30T10:49:49;100286.44;;;23.12;46.81
83021;BME280;72837;47.418;19.394;2023-09-30T10:52:22;100281.66;;;23.04;47.43
83021;BME280;72837;47.418;19.394;2023-09-30T10:54:51;100284.19;;;23.01;47.32
83021;BME280;72837;47.418;19.394;2023-09-30T10:57:28;100283.16;;;23.10;48.38
83021;BME280;72837;47.418;19.394;2023-09-30T11:00:12;100281.94;;;22.39;48.59
83021;BME280;72837;47.418;19.394;2023-09-30T11:02:51;100291.31;;;22.33;48.71
83021;BME280;72837;47.418;19.394;2023-09-30T11:05:21;100276.09;;;22.64;47.85
83021;BME280;72837;47.418;19.394;2023-09-30T11:08:09;100279.13;;;22.62;48.61
83021;BME280;72837;47.418;19.394;2023-09-30T11:10:37;100283.25;;;22.92;48.45
83021;BME280;72837;47.418;19.394;2023-09-30T11:13:04;100265.22;;;23.23;48.27
83021;BME280;72837;47.418;19.394;2023-09-30T11:15:32;100281.31;;;23.24;49.11
83021;BME280;72837;47.418;19.394;2023-09-30T11:18:16;100272.22;;;22.83;48.17
83021;BME280;72837;47.418;19.394;2023-09-30T11:20:44;100283.00;;;23.07;48.40
83021;BME280;72837;47.418;19.394;2023-09-30T11:23:11;100274.31;;;22.73;48.98
83021;BME280;72837;47.418;19.394;2023-09-30T11:25:40;100269.97;;;22.72;49.09
83021;BME280;72837;47.418;19.394;2023-09-30T11:28:17;100266.84;;;22.92;48.16
83021;BME280;72837;47.418;19.394;2023-09-30T11:31:00;100268.88;;;22.36;49.79
83021;BME280;72837;47.418;19.394;2023-09-30T11:33:29;100273.09;;;22.47;49.78
83021;BME280;72837;47.418;19.394;2023-09-30T11:35:59;100267.91;;;22.64;49.86
83021;BME280;72837;47.418;19.394;2023-09-30T11:38:32;100272.59;;;22.45;50.60
83021;BME280;72837;47.418;19.394;2023-09-30T11:41:06;100271.25;;;22.24;50.03
83021;BME280;72837;47.418;19.394;2023-09-30T11:43:34;100278.34;;;22.07;49.86
83021;BME280;72837;47.418;19.394;2023-09-30T11:46:11;100272.78;;;21.93;50.62
83021;BME280;72837;47.418;19.394;2023-09-30T11:48:58;100273.16;;;21.87;50.30
83021;BME280;72837;47.418;19.394;2023-09-30T11:51:28;100265.78;;;21.69;51.06
83021;BME280;72837;47.418;19.394;2023-09-30T11:53:56;100272.34;;;21.63;51.12
83021;BME280;72837;47.418;19.394;2023-09-30T11:56:25;100273.13;;;21.68;50.65
83021;BME280;72837;47.418;19.394;2023-09-30T11:58:56;100276.56;;;21.79;50.67
83021;BME280;72837;47.418;19.394;2023-09-30T12:01:27;100273.44;;;21.67;49.85
83021;BME280;72837;47.418;19.394;2023-09-30T12:03:58;100262.03;;;21.60;51.26
83021;BME280;72837;47.418;19.394;2023-09-30T12:06:26;100279.00;;;21.57;51.21
83021;BME280;72837;47.418;19.394;2023-09-30T12:08:54;100268.78;;;21.67;52.01
83021;BME280;72837;47.418;19.394;2023-09-30T12:11:21;100271.09;;;21.55;51.57
83021;BME280;72837;47.418;19.394;2023-09-30T12:13:51;100278.63;;;21.63;51.69
83021;BME280;72837;47.418;19.394;2023-09-30T12:16:18;100274.34;;;21.57;52.38
83021;BME280;72837;47.418;19.394;2023-09-30T12:18:46;63443.25;;;-139.69;100.00
83021;BME280;72837;47.418;19.394;2023-09-30T12:21:13;100267.63;;;21.26;54.42
83021;BME280;72837;47.418;19.394;2023-09-30T12:23:41;100267.84;;;21.30;54.77
83021;BME280;72837;47.418;19.394;2023-09-30T12:26:09;100260.31;;;21.45;54.94
83021;BME280;72837;47.418;19.394;2023-09-30T12:28:41;100257.81;;;21.49;54.91
83021;BME280;72837;47.418;19.394;2023-09-30T12:31:09;100263.28;;;21.25;55.64
83021;BME280;72837;47.418;19.394;2023-09-30T12:33:38;100263.47;;;21.34;55.65
83021;BME280;72837;47.418;19.394;2023-09-30T12:36:05;100269.47;;;21.31;55.59
83021;BME280;72837;47.418;19.394;2023-09-30T12:38:33;100259.09;;;21.09;55.07
83021;BME280;72837;47.418;19.394;2023-09-30T12:41:00;63443.25;;;-139.69;100.00
83021;BME280;72837;47.418;19.394;2023-09-30T12:43:28;63443.25;;;-139.69;100.00
83021;BME280;72837;47.418;19.394;2023-09-30T12:45:55;63443.25;;;-139.69;100.00
83021;BME280;72837;47.418;19.394;2023-09-30T12:48:22;63443.25;;;-139.69;100.00
83021;BME280;72837;47.418;19.394;2023-09-30T12:50:50;100288.75;;;20.49;58.39
83021;BME280;72837;47.418;19.394;2023-09-30T12:53:18;63443.25;;;-139.69;100.00
83021;BME280;72837;47.418;19.394;2023-09-30T12:55:45;63443.25;;;-139.69;100.00
83021;BME280;72837;47.418;19.394;2023-09-30T12:58:12;63443.25;;;-139.69;100.00